Time;durP1;ratioP1;P1;durP2;ratioP2;P2;SDS_P1;SDS_P2;PMS_P1;PMS_P2;Temp;Humidity;BMP_temperature;BMP_pressure;BME280_temperature;BME280_humidity;BME280_pressure;Samples;Min_cycle;Max_cycle;Signal;HPM_P1;HPM_P2
2021/10/16 00:00:39;;;;;;;9.20;6.10;;;;;;;9.75;73.96;100593.55;116749;1191;22242;-75
2021/10/16 00:03:09;;;;;;;8.50;5.20;;;;;;;9.74;73.92;100592.21;116739;1191;24059;-75
2021/10/16 00:05:38;;;;;;;10.10;4.90;;;;;;;9.73;73.95;100596.36;116758;1189;21928;-75
2021/10/16 00:08:07;;;;;;;9.50;5.40;;;;;;;9.72;73.84;100599.69;116989;1186;22799;-75
2021/10/16 00:10:36;;;;;;;8.00;5.10;;;;;;;9.68;73.84;100597.07;116701;1191;22004;-75
2021/10/16 00:13:05;;;;;;;7.60;5.90;;;;;;;9.66;73.89;100597.29;116708;1184;22942;-75
2021/10/16 00:15:34;;;;;;;13.80;5.90;;;;;;;9.64;73.78;100597.86;116729;1191;22352;-75
2021/10/16 00:18:04;;;;;;;10.40;5.60;;;;;;;9.62;73.81;100597.98;116612;1193;22287;-75
2021/10/16 00:20:33;;;;;;;9.50;5.90;;;;;;;9.61;73.96;100598.81;116515;1193;22072;-75
2021/10/16 00:23:02;;;;;;;12.10;5.50;;;;;;;9.62;73.99;100597.33;116455;1193;24158;-75
2021/10/16 00:25:31;;;;;;;8.80;5.40;;;;;;;9.61;73.97;100596.89;116459;1193;21907;-75
2021/10/16 00:28:00;;;;;;;12.30;6.00;;;;;;;9.61;74.01;100597.45;116481;1193;23448;-75
2021/10/16 00:30:29;;;;;;;11.10;5.30;;;;;;;9.62;74.11;100595.22;116451;1190;21895;-76
2021/10/16 00:32:58;;;;;;;13.90;6.80;;;;;;;9.63;74.18;100592.98;116232;1196;22038;-75
2021/10/16 00:35:27;;;;;;;10.20;6.00;;;;;;;9.63;74.06;100592.27;116278;1192;23442;-75
2021/10/16 00:37:56;;;;;;;9.50;5.40;;;;;;;9.64;74.05;100595.39;116468;1192;21918;-76
2021/10/16 00:40:27;;;;;;;12.20;6.10;;;;;;;9.63;73.98;100597.75;116482;1192;22710;-76
2021/10/16 00:42:56;;;;;;;8.80;5.70;;;;;;;9.60;73.95;100599.29;116652;1192;21912;-76
2021/10/16 00:45:26;;;;;;;14.20;6.80;;;;;;;9.59;74.06;100601.13;116479;1192;22023;-76
2021/10/16 00:47:55;;;;;;;11.10;6.10;;;;;;;9.59;74.06;100604.29;116546;1190;21884;-76
2021/10/16 00:50:26;;;;;;;14.70;7.80;;;;;;;9.58;73.89;100608.67;116592;1189;22926;-77
2021/10/16 00:52:56;;;;;;;15.20;6.70;;;;;;;9.55;73.93;100607.92;116802;1189;21986;-77
2021/10/16 00:55:26;;;;;;;12.40;5.80;;;;;;;9.52;73.96;100603.84;117020;1189;24301;-76
2021/10/16 00:58:00;;;;;;;13.40;7.60;;;;;;;9.50;74.03;100603.80;116985;1189;23466;-76
2021/10/16 01:00:29;;;;;;;13.90;6.30;;;;;;;9.50;74.11;100605.59;116962;1189;22295;-76
2021/10/16 01:03:02;;;;;;;11.10;6.50;;;;;;;9.50;74.11;100604.58;116825;1189;22000;-76
2021/10/16 01:05:33;;;;;;;17.70;8.50;;;;;;;9.50;74.07;100607.42;116920;1180;22912;-76
2021/10/16 01:08:04;;;;;;;11.40;6.30;;;;;;;9.49;74.18;100605.91;117014;1188;22942;-76
2021/10/16 01:10:37;;;;;;;15.00;6.20;;;;;;;9.49;74.12;100607.48;116674;1192;22909;-76
2021/10/16 01:13:06;;;;;;;9.60;6.20;;;;;;;9.48;74.09;100607.58;116732;1190;23538;-76
2021/10/16 01:15:35;;;;;;;13.70;6.70;;;;;;;9.47;73.97;100610.63;116590;1192;21895;-76
2021/10/16 01:18:05;;;;;;;11.70;6.20;;;;;;;9.46;74.03;100611.42;116682;1188;21914;-76
2021/10/16 01:20:39;;;;;;;15.80;7.60;;;;;;;9.46;73.99;100612.85;116682;1190;22002;-76
2021/10/16 01:23:08;;;;;;;13.80;7.00;;;;;;;9.47;74.05;100616.76;116586;1192;22353;-76
2021/10/16 01:25:38;;;;;;;12.60;6.40;;;;;;;9.48;74.03;100618.42;116727;1192;21882;-76
2021/10/16 01:28:07;;;;;;;12.40;6.00;;;;;;;9.48;73.95;100613.21;116694;1189;23452;-76
2021/10/16 01:30:37;;;;;;;15.50;7.60;;;;;;;9.47;73.94;100613.86;116864;1176;21889;-76
2021/10/16 01:33:06;;;;;;;13.30;7.20;;;;;;;9.46;73.86;100614.78;116932;1189;21904;-76
2021/10/16 01:35:35;;;;;;;14.10;6.90;;;;;;;9.46;73.93;100613.56;116962;1189;22081;-75
2021/10/16 01:38:05;;;;;;;13.00;7.80;;;;;;;9.46;73.95;100613.04;116858;1181;22901;-75
2021/10/16 01:40:34;;;;;;;14.70;6.90;;;;;;;9.46;73.91;100613.77;116843;1189;21945;-75
2021/10/16 01:43:03;;;;;;;10.70;6.00;;;;;;;9.45;73.93;100619.29;116944;1188;21940;-75
2021/10/16 01:45:32;;;;;;;15.50;7.70;;;;;;;9.42;73.79;100618.52;116929;1186;23540;-75
2021/10/16 01:48:04;;;;;;;11.30;6.40;;;;;;;9.42;73.90;100619.77;116835;1188;22991;-75
2021/10/16 01:50:41;;;;;;;9.00;6.00;;;;;;;9.41;73.91;100619.17;116873;1187;21889;-75
2021/10/16 01:53:18;;;;;;;11.40;7.10;;;;;;;9.40;73.95;100622.26;116707;1192;23455;-75
2021/10/16 01:55:56;;;;;;;14.70;6.90;;;;;;;9.38;73.91;100626.08;116644;1192;23441;-75
2021/10/16 01:58:28;;;;;;;11.60;8.20;;;;;;;9.36;73.89;100625.77;116658;1193;21926;-75
2021/10/16 02:01:12;;;;;;;13.90;6.50;;;;;;;9.34;73.76;100627.23;116479;1190;22642;-76
2021/10/16 02:03:42;;;;;;;14.20;6.90;;;;;;;9.32;73.87;100627.44;116492;1193;23050;-76
2021/10/16 02:06:19;;;;;;;11.50;7.30;;;;;;;9.29;73.90;100626.30;116510;1193;23537;-75
2021/10/16 02:08:54;;;;;;;17.90;7.80;;;;;;;9.28;73.93;100630.99;116517;1193;21882;-75
2021/10/16 02:11:23;;;;;;;18.90;8.40;;;;;;;9.28;74.09;100632.77;116596;1191;21890;-75
2021/10/16 02:13:57;;;;;;;13.10;7.50;;;;;;;9.28;74.03;100636.77;116746;1187;22910;-75
2021/10/16 02:16:28;;;;;;;9.30;6.50;;;;;;;9.28;73.94;100640.30;116838;1187;21906;-75
2021/10/16 02:19:02;;;;;;;10.00;6.20;;;;;;;9.28;73.80;100645.63;117003;1187;22002;-75
2021/10/16 02:21:32;;;;;;;13.00;7.50;;;;;;;9.25;73.83;100646.26;116806;1180;22907;-76
2021/10/16 02:24:01;;;;;;;18.10;8.10;;;;;;;9.23;73.92;100645.16;116808;1189;21897;-76
2021/10/16 02:26:37;;;;;;;11.00;6.30;;;;;;;9.22;73.97;100644.92;117021;1175;22504;-74
2021/10/16 02:29:07;;;;;;;12.10;7.20;;;;;;;9.22;74.03;100641.79;117012;1185;21905;-73
2021/10/16 02:31:38;;;;;;;15.30;8.80;;;;;;;9.22;73.98;100647.25;116991;1177;21901;-73
2021/10/16 02:34:10;;;;;;;;;;;;;;;9.20;73.87;100649.02;116912;1189;21883;-76
2021/10/16 02:36:45;;;;;;;10.90;6.80;;;;;;;9.12;74.08;100655.96;116946;1188;21877;-76
2021/10/16 02:39:14;;;;;;;13.30;6.90;;;;;;;9.09;74.07;100659.36;116977;1188;23481;-76
2021/10/16 02:41:43;;;;;;;10.90;6.50;;;;;;;9.11;74.13;100666.23;116806;1189;21879;-76
2021/10/16 02:44:13;;;;;;;9.80;6.90;;;;;;;9.12;74.14;100665.63;117130;1187;21910;-76
2021/10/16 02:46:48;;;;;;;12.50;7.60;;;;;;;9.13;74.14;100666.45;117018;1189;21893;-76
2021/10/16 02:49:18;;;;;;;14.50;7.60;;;;;;;9.14;74.08;100671.57;116513;1190;21899;-76
2021/10/16 02:51:48;;;;;;;15.70;8.70;;;;;;;9.15;74.02;100675.00;116772;1193;21895;-76
2021/10/16 02:54:18;;;;;;;15.80;8.00;;;;;;;9.14;74.01;100679.63;116499;1183;21937;-76
2021/10/16 02:56:49;;;;;;;18.20;8.70;;;;;;;9.10;73.76;100681.81;116561;1193;21917;-78
2021/10/16 02:59:18;;;;;;;14.80;7.80;;;;;;;9.08;73.94;100686.21;116299;1194;23649;-77
2021/10/16 03:01:50;;;;;;;15.50;8.90;;;;;;;9.08;74.01;100687.63;116238;1196;21891;-75
2021/10/16 03:04:23;;;;;;;11.50;7.10;;;;;;;9.07;74.02;100686.35;116211;1196;23511;-75
2021/10/16 03:06:52;;;;;;;17.90;10.20;;;;;;;9.06;74.06;100684.00;116252;1179;21903;-76
2021/10/16 03:09:21;;;;;;;14.40;7.70;;;;;;;9.06;74.15;100682.92;116449;1192;21890;-76
2021/10/16 03:11:51;;;;;;;21.30;9.30;;;;;;;9.06;74.09;100680.45;116734;1192;21906;-76
2021/10/16 03:14:20;;;;;;;19.20;9.80;;;;;;;9.06;74.00;100678.54;116580;1192;21900;-75
2021/10/16 03:16:50;;;;;;;16.10;9.20;;;;;;;9.04;73.90;100677.60;116765;1189;21876;-76
2021/10/16 03:19:22;;;;;;;17.80;8.90;;;;;;;9.04;73.91;100683.09;116980;1189;22057;-75
2021/10/16 03:21:56;;;;;;;17.80;9.10;;;;;;;9.02;73.87;100684.48;116878;1187;21877;-76
2021/10/16 03:24:38;;;;;;;15.60;9.50;;;;;;;9.00;73.90;100690.63;116987;1189;21917;-76
2021/10/16 03:27:07;;;;;;;13.40;8.80;;;;;;;8.98;73.98;100692.95;117085;1184;21892;-76
2021/10/16 03:29:36;;;;;;;16.50;9.00;;;;;;;8.98;74.00;100695.45;116844;1180;21894;-76
2021/10/16 03:32:06;;;;;;;12.50;7.80;;;;;;;8.98;73.95;100699.81;116923;1188;23470;-76
2021/10/16 03:34:35;;;;;;;11.90;7.40;;;;;;;8.99;73.99;100698.89;116854;1189;21876;-76
2021/10/16 03:37:04;;;;;;;21.60;12.50;;;;;;;8.99;73.94;100702.58;116821;1189;21905;-77
2021/10/16 03:39:34;;;;;;;14.20;8.90;;;;;;;8.99;73.87;100705.40;116614;1192;21910;-76
2021/10/16 03:42:04;;;;;;;20.60;12.70;;;;;;;8.98;73.86;100706.38;116719;1192;21888;-76
2021/10/16 03:44:34;;;;;;;27.30;18.70;;;;;;;8.96;73.84;100710.91;116614;1192;22003;-76
2021/10/16 03:47:03;;;;;;;26.70;17.10;;;;;;;8.97;73.96;100711.38;116768;1192;23538;-75
2021/10/16 03:49:32;;;;;;;28.60;20.90;;;;;;;8.96;73.94;100709.83;116729;1190;21897;-76
2021/10/16 03:52:06;;;;;;;19.10;11.40;;;;;;;8.96;73.93;100712.17;116635;1189;22212;-75
2021/10/16 03:54:36;;;;;;;19.30;11.50;;;;;;;8.96;73.77;100712.53;116753;1189;21936;-74
2021/10/16 03:57:06;;;;;;;20.30;11.60;;;;;;;8.96;73.81;100714.45;116632;1189;23027;-75
2021/10/16 03:59:37;;;;;;;14.50;8.90;;;;;;;8.94;73.71;100715.98;117046;1185;22912;-75
2021/10/16 04:02:06;;;;;;;14.60;7.60;;;;;;;8.95;73.77;100719.52;117057;1185;21974;-75
2021/10/16 04:04:37;;;;;;;11.30;6.80;;;;;;;8.94;73.82;100718.84;117045;1185;22907;-76
2021/10/16 04:07:08;;;;;;;14.70;8.10;;;;;;;8.93;73.84;100719.25;116996;1186;23458;-76
2021/10/16 04:09:38;;;;;;;15.20;7.60;;;;;;;8.94;73.95;100723.73;116885;1188;23452;-75
2021/10/16 04:12:08;;;;;;;17.40;8.80;;;;;;;8.95;73.88;100730.31;116973;1188;22897;-76
2021/10/16 04:14:37;;;;;;;13.90;8.20;;;;;;;8.97;73.95;100732.40;116943;1188;21885;-76
2021/10/16 04:17:06;;;;;;;12.90;7.30;;;;;;;8.98;73.81;100732.70;117029;1187;21889;-76
2021/10/16 04:19:35;;;;;;;15.90;8.30;;;;;;;8.97;73.70;100734.39;117010;1189;22204;-76
2021/10/16 04:22:07;;;;;;;15.90;7.70;;;;;;;8.96;73.60;100735.02;116834;1189;21886;-75
2021/10/16 04:25:08;;;;;;;10.30;6.70;;;;;;;8.91;73.48;100740.08;117034;1185;21889;-77
2021/10/16 04:27:37;;;;;;;14.30;7.50;;;;;;;8.86;73.50;100741.95;117111;1189;21904;-77
2021/10/16 04:30:17;;;;;;;14.50;7.10;;;;;;;8.82;73.71;100741.02;117112;1189;21949;-76
2021/10/16 04:32:46;;;;;;;16.30;7.90;;;;;;;8.81;73.60;100743.27;117088;1189;21890;-76
2021/10/16 04:35:18;;;;;;;19.70;8.10;;;;;;;8.81;73.68;100738.57;117068;1188;23434;-76
2021/10/16 04:37:48;;;;;;;13.40;7.90;;;;;;;8.79;73.65;100734.89;116873;1190;22960;-75
2021/10/16 04:40:18;;;;;;;18.50;8.10;;;;;;;8.79;73.84;100734.70;116851;1187;22024;-75
2021/10/16 04:42:50;;;;;;;22.40;10.60;;;;;;;8.78;73.75;100735.52;116886;1190;23510;-75
2021/10/16 04:45:20;;;;;;;;;;;;;;;8.78;73.69;100737.06;116549;1193;21912;-75
2021/10/16 04:47:51;;;;;;;13.80;8.90;;;;;;;8.70;73.74;100736.93;116714;1193;21931;-75
2021/10/16 04:50:21;;;;;;;;;;;;;;;8.68;73.85;100742.37;116666;1190;22039;-75
2021/10/16 04:52:50;;;;;;;18.90;10.60;;;;;;;8.63;74.04;100742.51;116465;1195;21899;-75
2021/10/16 04:55:25;;;;;;;15.40;9.90;;;;;;;8.63;74.05;100743.37;116524;1193;21880;-75
2021/10/16 04:57:54;;;;;;;18.80;10.00;;;;;;;8.67;73.92;100747.76;116480;1185;21984;-74
2021/10/16 05:00:26;;;;;;;18.10;9.10;;;;;;;8.70;73.98;100745.40;116539;1193;23681;-75
2021/10/16 05:02:59;;;;;;;18.20;10.00;;;;;;;8.72;73.84;100750.46;116520;1192;21881;-75
2021/10/16 05:05:28;;;;;;;20.40;10.70;;;;;;;8.70;73.72;100751.99;116732;1192;22847;-75
2021/10/16 05:07:59;;;;;;;21.70;10.60;;;;;;;8.70;73.48;100753.65;116756;1192;23562;-75
2021/10/16 05:10:29;;;;;;;20.60;11.00;;;;;;;8.69;73.52;100755.27;116843;1189;21926;-75
2021/10/16 05:12:59;;;;;;;18.00;10.30;;;;;;;8.70;73.45;100757.42;116916;1187;22715;-74
2021/10/16 05:15:28;;;;;;;18.20;10.70;;;;;;;8.72;73.53;100760.46;117053;1186;21892;-76
2021/10/16 05:18:00;;;;;;;;;;;;;;;8.71;73.46;100760.21;116956;1189;23446;-76
2021/10/16 05:20:38;;;;;;;19.60;11.90;;;;;;;8.63;73.54;100761.67;116730;1191;23687;-76
2021/10/16 05:23:07;;;;;;;20.70;12.00;;;;;;;8.61;73.52;100764.80;116800;1191;21898;-76
2021/10/16 05:25:36;;;;;;;22.20;13.20;;;;;;;8.62;73.45;100768.41;116833;1191;21936;-76
2021/10/16 05:28:06;;;;;;;19.60;11.40;;;;;;;8.62;73.49;100768.80;116803;1191;22924;-76
2021/10/16 05:30:37;;;;;;;19.20;11.00;;;;;;;8.62;73.45;100773.70;116752;1191;21913;-76
2021/10/16 05:33:06;;;;;;;20.30;10.90;;;;;;;8.62;73.40;100775.97;116822;1191;21935;-76
2021/10/16 05:35:38;;;;;;;18.70;11.20;;;;;;;8.62;73.40;100775.67;116812;1187;22871;-76
2021/10/16 05:38:14;;;;;;;19.60;10.20;;;;;;;8.61;73.53;100785.01;116886;1189;21876;-76
2021/10/16 05:40:49;;;;;;;25.90;11.80;;;;;;;8.59;73.31;100787.10;116952;1189;22161;-75
2021/10/16 05:43:22;;;;;;;24.80;12.30;;;;;;;8.58;73.26;100793.92;116965;1189;21882;-76
2021/10/16 05:45:58;;;;;;;20.10;12.80;;;;;;;8.59;73.40;100795.58;117071;1188;21923;-75
2021/10/16 05:48:31;;;;;;;23.50;12.40;;;;;;;8.62;73.44;100796.58;116930;1188;21882;-74
2021/10/16 05:51:00;;;;;;;21.80;11.10;;;;;;;8.62;73.32;100799.55;116963;1188;21881;-74
2021/10/16 05:53:35;;;;;;;19.60;9.40;;;;;;;8.61;73.38;100804.86;117016;1189;22874;-74
2021/10/16 05:56:09;;;;;;;19.80;9.80;;;;;;;8.61;73.31;100809.60;117040;1187;21937;-74
2021/10/16 05:58:39;;;;;;;15.30;11.10;;;;;;;8.61;73.34;100813.81;117025;1186;23029;-74
2021/10/16 06:01:10;;;;;;;20.50;9.50;;;;;;;8.61;73.20;100813.67;117050;1187;22203;-74
2021/10/16 06:03:46;;;;;;;12.30;8.70;;;;;;;8.60;73.21;100814.60;116599;1187;22958;-75
2021/10/16 06:06:24;;;;;;;17.90;9.50;;;;;;;8.62;73.33;100818.08;116835;1191;21883;-74
2021/10/16 06:08:56;;;;;;;18.40;10.40;;;;;;;8.65;73.19;100825.59;116636;1191;22529;-75
2021/10/16 06:11:26;;;;;;;17.50;11.80;;;;;;;8.66;72.97;100828.45;116728;1191;23490;-75
2021/10/16 06:13:55;;;;;;;21.50;13.30;;;;;;;8.67;72.85;100831.29;116750;1188;22624;-75
2021/10/16 06:16:25;;;;;;;19.90;10.40;;;;;;;8.69;72.92;100833.77;116477;1190;21950;-75
2021/10/16 06:18:54;;;;;;;16.90;9.50;;;;;;;8.72;72.88;100835.45;116510;1193;22754;-75
2021/10/16 06:21:24;;;;;;;16.40;9.80;;;;;;;8.72;72.84;100838.92;116466;1193;22825;-75
2021/10/16 06:23:53;;;;;;;14.80;9.30;;;;;;;8.73;72.71;100843.08;116517;1193;23849;-75
2021/10/16 06:26:40;;;;;;;20.30;10.20;;;;;;;8.72;72.60;100847.05;116464;1193;21898;-75
2021/10/16 06:29:10;;;;;;;21.90;10.30;;;;;;;8.70;72.46;100845.81;116586;1190;21900;-75
2021/10/16 06:31:39;;;;;;;16.90;11.10;;;;;;;8.68;72.35;100847.90;116625;1191;22856;-75
2021/10/16 06:34:10;;;;;;;14.30;10.50;;;;;;;8.66;72.29;100852.01;116827;1189;21899;-75
2021/10/16 06:36:39;;;;;;;18.40;10.40;;;;;;;8.64;72.28;100855.86;116861;1187;22590;-74
2021/10/16 06:39:08;;;;;;;20.30;11.00;;;;;;;8.62;72.27;100859.00;116781;1189;21892;-74
2021/10/16 06:41:42;;;;;;;20.60;10.50;;;;;;;8.62;72.26;100862.73;116774;1189;23636;-74
2021/10/16 06:44:46;;;;;;;19.60;11.40;;;;;;;8.61;72.26;100859.84;116707;1180;21883;-74
2021/10/16 06:47:29;;;;;;;21.10;12.00;;;;;;;8.61;72.37;100867.57;116478;1193;22642;-74
2021/10/16 06:50:08;;;;;;;20.00;11.40;;;;;;;8.60;72.32;100865.84;116594;1192;21942;-74
2021/10/16 06:52:37;;;;;;;18.90;12.60;;;;;;;8.62;72.45;100872.52;116551;1190;23479;-75
2021/10/16 06:55:06;;;;;;;21.20;12.10;;;;;;;8.66;72.52;100874.11;116679;1192;21881;-75
2021/10/16 06:57:38;;;;;;;19.00;11.20;;;;;;;8.70;72.64;100874.63;116500;1192;21894;-74
2021/10/16 07:00:10;;;;;;;;;;;;;;;8.72;72.67;100880.19;116728;1191;23435;-73
2021/10/16 07:02:40;;;;;;;18.70;11.00;;;;;;;8.68;72.63;100882.29;116723;1192;23478;-74
2021/10/16 07:05:14;;;;;;;19.30;11.50;;;;;;;8.68;72.66;100885.45;116678;1192;22083;-73
2021/10/16 07:07:44;;;;;;;20.50;12.90;;;;;;;8.73;72.52;100888.75;116566;1192;21894;-74
2021/10/16 07:10:16;;;;;;;21.80;13.70;;;;;;;8.77;72.52;100894.14;116737;1191;22063;-74
2021/10/16 07:12:46;;;;;;;15.90;11.00;;;;;;;8.82;72.57;100898.79;116548;1190;21995;-75
2021/10/16 07:15:15;;;;;;;16.60;11.90;;;;;;;8.86;72.51;100899.48;116750;1192;21900;-75
2021/10/16 07:17:44;;;;;;;21.70;12.50;;;;;;;8.88;72.21;100900.83;116546;1192;22086;-75
2021/10/16 07:20:14;;;;;;;19.70;12.90;;;;;;;8.91;72.23;100902.14;116629;1191;21908;-75
2021/10/16 07:22:43;;;;;;;22.40;13.80;;;;;;;8.95;72.40;100896.52;116724;1192;21990;-74
2021/10/16 07:25:13;;;;;;;19.70;11.60;;;;;;;9.01;72.28;100890.00;116575;1192;22848;-74
2021/10/16 07:27:46;;;;;;;20.20;11.90;;;;;;;9.04;72.07;100893.00;116457;1195;21888;-74
2021/10/16 07:30:16;;;;;;;19.20;12.30;;;;;;;9.06;71.86;100893.05;116406;1195;22871;-74
2021/10/16 07:32:46;;;;;;;21.00;11.30;;;;;;;9.07;71.69;100895.08;116398;1195;22003;-74
2021/10/16 07:35:16;;;;;;;20.90;12.70;;;;;;;9.08;71.55;100902.55;116258;1193;21898;-74
2021/10/16 07:37:48;;;;;;;18.60;12.10;;;;;;;9.11;71.58;100907.69;116112;1195;22923;-74
2021/10/16 07:40:20;;;;;;;20.20;11.80;;;;;;;9.11;71.53;100912.77;116150;1196;21940;-75
2021/10/16 07:42:49;;;;;;;24.10;13.20;;;;;;;9.12;71.32;100918.81;116137;1198;21986;-74
2021/10/16 07:45:22;;;;;;;21.50;12.10;;;;;;;9.12;71.27;100922.80;116058;1197;21908;-75
2021/10/16 07:47:55;;;;;;;22.30;14.20;;;;;;;9.13;71.26;100933.79;116132;1197;23497;-75
2021/10/16 07:50:24;;;;;;;22.80;13.40;;;;;;;9.17;71.40;100934.52;116157;1196;23461;-75
2021/10/16 07:52:54;;;;;;;21.50;11.90;;;;;;;9.20;71.33;100938.48;116428;1192;22927;-73
2021/10/16 07:55:23;;;;;;;21.20;12.70;;;;;;;9.23;71.39;100942.38;116761;1188;22901;-74
2021/10/16 07:57:52;;;;;;;23.10;12.40;;;;;;;9.28;71.37;100935.62;116734;1191;23475;-74
2021/10/16 08:00:22;;;;;;;21.60;12.80;;;;;;;9.31;71.19;100939.30;116749;1191;22912;-75
2021/10/16 08:02:52;;;;;;;20.80;11.60;;;;;;;9.33;71.08;100939.45;116807;1189;22625;-74
2021/10/16 08:05:21;;;;;;;19.00;12.20;;;;;;;9.36;71.24;100941.48;116713;1190;21885;-74
2021/10/16 08:07:52;;;;;;;17.20;12.60;;;;;;;9.40;71.08;100942.54;116400;1195;22852;-74
2021/10/16 08:10:22;;;;;;;17.30;12.00;;;;;;;9.49;71.69;100944.33;116379;1195;23477;-74
2021/10/16 08:12:51;;;;;;;19.00;12.00;;;;;;;9.76;72.74;100950.35;116399;1195;24240;-74
2021/10/16 08:15:20;;;;;;;18.40;12.30;;;;;;;10.09;72.87;100957.49;116378;1193;23566;-74
2021/10/16 08:17:49;;;;;;;16.20;10.70;;;;;;;10.43;72.37;100962.71;116135;1197;21905;-74
2021/10/16 08:20:29;;;;;;;17.20;10.30;;;;;;;10.58;70.31;100963.42;116293;1193;21888;-75
2021/10/16 08:23:16;;;;;;;18.90;10.70;;;;;;;10.61;69.07;100961.73;115944;1189;22926;-74
2021/10/16 08:25:46;;;;;;;20.50;10.40;;;;;;;10.62;68.33;100964.29;116312;1195;22308;-74
2021/10/16 08:28:23;;;;;;;18.00;11.00;;;;;;;10.61;67.92;100961.07;116093;1193;22601;-74
2021/10/16 08:31:00;;;;;;;;;;;;;;;10.67;68.08;100960.16;115536;1199;21899;-74
2021/10/16 08:33:33;;;;;;;19.10;10.50;;;;;;;10.67;68.12;100962.91;115545;1201;23094;-74
2021/10/16 08:36:05;;;;;;;16.00;10.10;;;;;;;10.69;67.71;100964.47;115798;1195;22757;-74
2021/10/16 08:38:35;;;;;;;;;;;;;;;10.68;67.02;100967.63;115748;1200;21881;-74
2021/10/16 08:41:04;;;;;;;20.10;11.30;;;;;;;10.61;67.08;100968.23;115895;1198;21915;-75
2021/10/16 08:43:34;;;;;;;18.30;11.20;;;;;;;10.67;67.42;100967.86;115599;1199;21965;-75
2021/10/16 08:46:03;;;;;;;17.00;10.90;;;;;;;10.81;67.18;100967.61;115741;1201;21907;-75
2021/10/16 08:48:33;;;;;;;19.30;10.30;;;;;;;10.93;67.06;100964.54;116146;1197;23458;-74
2021/10/16 08:51:02;;;;;;;16.40;10.10;;;;;;;11.03;66.33;100967.91;115925;1199;23519;-75
2021/10/16 08:53:32;;;;;;;15.10;10.40;;;;;;;11.04;65.69;100967.95;115914;1188;21909;-74
2021/10/16 08:56:04;;;;;;;16.30;10.50;;;;;;;11.07;65.50;100967.15;116024;1198;21921;-75
2021/10/16 08:58:35;;;;;;;16.80;9.80;;;;;;;11.10;65.24;100971.30;115974;1197;21919;-74
2021/10/16 09:01:05;;;;;;;19.20;10.90;;;;;;;11.13;65.16;100965.90;116287;1195;21893;-74
2021/10/16 09:03:45;;;;;;;20.00;10.50;;;;;;;11.18;65.01;100965.68;116258;1194;21884;-75
2021/10/16 09:06:27;;;;;;;16.30;10.40;;;;;;;11.26;64.89;100963.95;116440;1194;23454;-75
2021/10/16 09:09:09;;;;;;;15.70;10.20;;;;;;;11.30;64.47;100968.00;116519;1193;21942;-75
2021/10/16 09:11:44;;;;;;;13.80;9.00;;;;;;;11.35;64.42;100971.22;116565;1190;21886;-74
2021/10/16 09:14:18;;;;;;;19.20;9.70;;;;;;;11.42;64.27;100972.79;116842;1181;21924;-74
2021/10/16 09:17:00;;;;;;;17.70;9.90;;;;;;;11.50;63.96;100968.89;116959;1189;22066;-73
2021/10/16 09:19:35;;;;;;;22.50;9.70;;;;;;;11.56;63.38;100970.83;116968;1187;21898;-74
2021/10/16 09:22:21;;;;;;;17.00;11.10;;;;;;;11.60;63.33;100974.44;117055;1189;21970;-75
2021/10/16 09:24:51;;;;;;;22.90;12.70;;;;;;;11.72;63.48;100977.71;117124;1185;21897;-74
2021/10/16 09:27:26;;;;;;;21.00;13.40;;;;;;;11.86;63.38;100973.35;116879;1189;22098;-74
2021/10/16 09:30:05;;;;;;;18.00;11.70;;;;;;;11.95;63.02;100975.24;116806;1189;21889;-74
2021/10/16 09:32:37;;;;;;;;;;;;;;;12.06;62.84;100976.48;116507;1192;22930;-74
2021/10/16 09:35:12;;;;;;;22.70;11.70;;;;;;;12.09;62.45;100978.84;116570;1193;21910;-74
2021/10/16 09:37:56;;;;;;;18.70;10.30;;;;;;;12.12;62.18;100981.83;116554;1193;21900;-74
2021/10/16 09:40:46;;;;;;;16.80;10.50;;;;;;;12.17;61.88;100980.09;116532;1193;23552;-75
2021/10/16 09:43:20;;;;;;;15.40;9.90;;;;;;;12.17;61.54;100978.99;116563;1193;22115;-74
2021/10/16 09:46:15;;;;;;;21.00;10.80;;;;;;;12.16;61.12;100976.35;116416;1195;23546;-74
2021/10/16 09:48:48;;;;;;;22.70;14.00;;;;;;;12.13;61.20;100978.27;116496;1192;22849;-74
2021/10/16 09:51:20;;;;;;;17.80;12.30;;;;;;;12.12;61.24;100979.63;116472;1192;23653;-75
2021/10/16 09:54:06;;;;;;;20.00;10.50;;;;;;;12.15;61.35;100976.98;116560;1193;21910;-74
2021/10/16 09:56:36;;;;;;;18.70;10.10;;;;;;;12.18;61.22;100980.59;116447;1194;23496;-74
2021/10/16 09:59:07;;;;;;;13.30;9.00;;;;;;;12.24;61.22;100980.40;116220;1196;23465;-74
2021/10/16 10:01:37;;;;;;;19.50;10.40;;;;;;;12.32;61.04;100980.98;116281;1196;23522;-74
2021/10/16 10:04:10;;;;;;;24.70;12.30;;;;;;;12.40;61.13;100983.08;116329;1194;22000;-75
2021/10/16 10:06:41;;;;;;;13.50;9.40;;;;;;;12.49;60.83;100986.40;116510;1194;22822;-74
2021/10/16 10:09:11;;;;;;;20.30;8.60;;;;;;;12.54;60.75;100986.00;116224;1196;21887;-74
2021/10/16 10:11:46;;;;;;;14.30;7.70;;;;;;;12.59;60.07;100990.84;116225;1196;22453;-74
2021/10/16 10:14:23;;;;;;;14.20;8.00;;;;;;;12.53;59.55;100988.08;116130;1196;21875;-74
2021/10/16 10:17:12;;;;;;;16.00;8.10;;;;;;;12.47;59.28;100987.71;116085;1195;21897;-73
2021/10/16 10:19:47;;;;;;;18.80;7.90;;;;;;;12.42;59.07;100988.87;116433;1195;21907;-73
2021/10/16 10:22:18;;;;;;;18.60;7.60;;;;;;;12.39;58.90;100989.99;116388;1195;21890;-74
2021/10/16 10:24:54;;;;;;;14.60;7.50;;;;;;;12.38;58.76;100986.85;116508;1193;21886;-74
2021/10/16 10:27:41;;;;;;;14.70;7.40;;;;;;;12.41;58.68;100986.75;116367;1184;23642;-74
2021/10/16 10:30:36;;;;;;;14.50;8.40;;;;;;;12.41;58.26;100984.98;116467;1193;21883;-74
2021/10/16 10:33:16;;;;;;;19.50;9.40;;;;;;;12.42;58.42;100984.00;116748;1191;21876;-75
2021/10/16 10:35:57;;;;;;;15.40;9.00;;;;;;;12.44;58.48;100980.98;116766;1191;21880;-75
2021/10/16 10:38:37;;;;;;;14.00;8.10;;;;;;;12.44;58.33;100985.10;116601;1193;23469;-74
2021/10/16 10:41:24;;;;;;;16.70;8.10;;;;;;;12.67;59.55;100987.52;116525;1191;23441;-74
2021/10/16 10:43:57;;;;;;;17.10;7.70;;;;;;;12.92;58.79;100987.65;116759;1187;21898;-74
2021/10/16 10:47:28;;;;;;;17.40;7.10;;;;;;;12.93;57.39;100985.55;116782;1191;23535;-74
2021/10/16 10:50:04;;;;;;;13.60;6.40;;;;;;;12.84;56.86;100983.30;116837;1191;21902;-73
2021/10/16 10:53:07;;;;;;;14.60;6.90;;;;;;;12.80;56.80;100981.83;116497;1194;21899;-74
2021/10/16 10:55:59;;;;;;;13.10;7.10;;;;;;;12.79;56.98;100979.83;116484;1194;21895;-74
2021/10/16 10:58:53;;;;;;;15.80;7.90;;;;;;;12.90;57.32;100979.10;116823;1191;22657;-74
2021/10/16 11:01:41;;;;;;;15.80;9.30;;;;;;;12.96;56.77;100973.86;116842;1191;21933;-75
2021/10/16 11:04:31;;;;;;;18.50;9.50;;;;;;;13.07;57.11;100973.60;116741;1191;22879;-74
2021/10/16 11:07:03;;;;;;;14.90;8.70;;;;;;;13.13;56.52;100969.91;116805;1188;21918;-74
2021/10/16 11:09:33;;;;;;;16.70;8.20;;;;;;;13.17;56.31;100966.45;116808;1188;23512;-74
2021/10/16 11:12:03;;;;;;;21.20;10.00;;;;;;;13.19;55.99;100963.53;117052;1189;21911;-73
2021/10/16 11:14:35;;;;;;;19.30;9.00;;;;;;;13.22;56.10;100960.99;117090;1188;21982;-74
2021/10/16 11:17:14;;;;;;;15.80;8.10;;;;;;;13.11;55.27;100962.44;117021;1189;21983;-74
2021/10/16 11:19:55;;;;;;;16.40;8.60;;;;;;;13.00;55.37;100959.16;116899;1188;22067;-75
2021/10/16 11:22:48;;;;;;;13.20;8.00;;;;;;;12.90;55.53;100960.36;116883;1190;24337;-74
2021/10/16 11:25:22;;;;;;;;;;;;;;;12.79;55.81;100958.41;116806;1189;23522;-74
2021/10/16 11:28:08;;;;;;;16.50;9.00;;;;;;;12.66;55.97;100959.52;116933;1190;22930;-75
2021/10/16 11:30:46;;;;;;;17.20;8.50;;;;;;;12.56;56.07;100956.91;116798;1190;23619;-75
2021/10/16 11:33:19;;;;;;;22.50;10.30;;;;;;;12.49;56.37;100953.96;116827;1190;22387;-75
2021/10/16 11:35:53;;;;;;;17.80;9.70;;;;;;;12.41;56.53;100952.17;116872;1190;22818;-75
2021/10/16 11:38:29;;;;;;;13.70;8.00;;;;;;;12.34;57.06;100954.32;116972;1187;22894;-74
2021/10/16 11:41:01;;;;;;;19.50;8.80;;;;;;;12.29;57.51;100952.40;116906;1189;22926;-74